Time,TemperatureF,DewpointF,PressureIn,WindDirection,WindDirectionDegrees,WindSpeedMPH,WindSpeedGustMPH,Humidity,HourlyPrecipIn,Conditions,Clouds,dailyrainin,SolarRadiationWatts/m^2,SoftwareType,DateUTC
2013-02-01 00:01:00,36.0,26.0,-100.00,NE,50,3.0,7.0,67,0.00,,,-99.99,1.000000,,2013-02-01 08:01:00,
2013-02-01 00:11:00,36.0,26.0,-100.00,NE,50,3.0,7.0,67,0.00,,,-99.99,1.000000,,2013-02-01 08:11:00,
2013-02-01 00:21:00,36.0,26.0,-100.00,NE,50,3.0,7.0,67,0.00,,,-99.99,1.000000,,2013-02-01 08:21:00,
2013-02-01 00:31:00,36.0,26.0,-100.00,NE,50,3.0,7.0,67,0.00,,,-99.99,1.000000,,2013-02-01 08:31:00,
2013-02-01 00:52:00,35.0,26.0,-100.00,NE,40,2.0,8.0,69,0.00,,,0.09,1.000000,,2013-02-01 08:52:00,
2013-02-01 01:01:00,35.0,26.0,-100.00,NE,40,2.0,8.0,69,0.00,,,0.09,1.000000,,2013-02-01 09:01:00,
2013-02-01 01:11:00,35.0,26.0,-100.00,NE,40,2.0,8.0,69,0.00,,,0.09,1.000000,,2013-02-01 09:11:00,
2013-02-01 01:21:00,35.0,26.0,-100.00,NE,40,2.0,8.0,69,0.00,,,0.09,1.000000,,2013-02-01 09:21:00,
2013-02-01 01:31:00,35.0,26.0,-100.00,NE,40,2.0,8.0,69,0.00,,,0.09,1.000000,,2013-02-01 09:31:00,
2013-02-01 01:52:00,37.0,24.0,-100.00,NE,34,4.0,8.0,60,0.00,,,0.09,1.000000,,2013-02-01 09:52:00,
2013-02-01 02:01:00,37.0,24.0,-100.00,NE,34,4.0,8.0,60,0.00,,,0.09,1.000000,,2013-02-01 10:01:00,
2013-02-01 02:11:00,37.0,24.0,-100.00,NE,34,4.0,8.0,60,0.00,,,0.09,1.000000,,2013-02-01 10:11:00,
2013-02-01 02:21:00,37.0,24.0,-100.00,NE,34,4.0,8.0,60,0.00,,,0.09,1.000000,,2013-02-01 10:21:00,
2013-02-01 02:53:00,38.0,26.0,-100.00,North,359,3.0,5.0,61,-99.99,,,0.09,1.000000,,2013-02-01 10:53:00,
2013-02-01 03:01:00,38.0,26.0,-100.00,North,359,3.0,5.0,61,-99.99,,,0.09,1.000000,,2013-02-01 11:01:00,
2013-02-01 03:53:00,39.0,29.0,-100.00,North,7,4.0,6.0,68,-99.99,,,0.09,1.000000,,2013-02-01 11:53:00,
2013-02-01 04:02:00,39.0,29.0,-100.00,North,7,4.0,6.0,68,-99.99,,,0.09,1.000000,,2013-02-01 12:02:00,
2013-02-01 05:02:00,38.0,28.0,-100.00,North,357,2.0,6.0,68,-99.99,,,0.09,1.000000,,2013-02-01 13:02:00,
2013-02-01 05:53:00,40.0,28.0,-100.00,NE,35,4.0,7.0,63,-99.99,,,0.09,1.000000,,2013-02-01 13:53:00,
2013-02-01 06:03:00,40.0,28.0,-100.00,NE,35,4.0,7.0,63,-99.99,,,0.09,1.000000,,2013-02-01 14:03:00,
2013-02-01 07:02:00,37.0,29.0,-100.00,NNE,25,5.0,8.0,72,-99.99,,,0.09,1.000000,,2013-02-01 15:02:00,
2013-02-01 08:02:00,39.0,28.0,-100.00,NNE,31,4.0,10.0,65,-99.99,,,0.09,3.000000,,2013-02-01 16:02:00,
2013-02-01 08:52:00,46.0,29.0,-100.00,East,94,3.0,8.0,52,-99.99,,,0.08,107.000000,,2013-02-01 16:52:00,
2013-02-01 09:02:00,46.0,29.0,-100.00,East,94,3.0,8.0,52,-99.99,,,0.08,107.000000,,2013-02-01 17:02:00,
2013-02-01 10:02:00,51.0,31.0,-100.00,South,172,4.0,7.0,46,-99.99,,,0.07,279.000000,,2013-02-01 18:02:00,
2013-02-01 11:02:00,58.0,33.0,-100.00,WNW,292,2.0,7.0,38,-99.99,,,0.05,427.000000,,2013-02-01 19:02:00,
2013-02-01 12:02:00,64.0,33.0,-100.00,West,280,2.0,4.0,31,-99.99,,,0.01,534.000000,,2013-02-01 20:02:00,
2013-02-01 12:52:00,60.0,34.0,-100.00,SSW,202,5.0,8.0,37,-99.99,,,0.00,581.000000,,2013-02-01 20:52:00,
2013-02-01 13:01:00,60.0,34.0,-100.00,SSW,202,5.0,8.0,37,-99.99,,,0.00,581.000000,,2013-02-01 21:01:00,
2013-02-01 13:52:00,61.0,33.0,-100.00,SSW,200,4.0,7.0,35,-99.99,,,0.00,567.000000,,2013-02-01 21:52:00,
2013-02-01 14:02:00,61.0,33.0,-100.00,SSW,200,4.0,7.0,35,-99.99,,,0.00,567.000000,,2013-02-01 22:02:00,
2013-02-01 14:52:00,65.0,34.0,-100.00,SSE,167,2.0,7.0,31,-99.99,,,0.00,494.000000,,2013-02-01 22:52:00,
2013-02-01 15:01:00,65.0,34.0,-100.00,SSE,167,2.0,7.0,31,-99.99,,,0.00,494.000000,,2013-02-01 23:01:00,
2013-02-01 15:52:00,52.0,27.0,-100.00,West,272,3.0,7.0,37,-99.99,,,0.00,248.000000,,2013-02-01 23:52:00,
2013-02-01 16:02:00,52.0,27.0,-100.00,West,272,3.0,7.0,37,-99.99,,,0.00,248.000000,,2013-02-02 00:02:00,
2013-02-01 16:11:00,52.0,27.0,-100.00,West,272,3.0,7.0,37,-99.99,,,0.00,248.000000,,2013-02-02 00:11:00,
2013-02-01 16:21:00,52.0,27.0,-100.00,West,272,3.0,7.0,37,-99.99,,,0.00,248.000000,,2013-02-02 00:21:00,
2013-02-01 16:32:00,52.0,27.0,-100.00,West,272,3.0,7.0,37,-99.99,,,0.00,248.000000,,2013-02-02 00:32:00,
2013-02-01 17:02:00,51.0,26.0,-100.00,SSW,197,4.0,6.0,38,0.00,,,-99.99,31.000000,,2013-02-02 01:02:00,
2013-02-01 17:11:00,51.0,26.0,-100.00,SSW,197,4.0,6.0,38,0.00,,,-99.99,31.000000,,2013-02-02 01:11:00,
2013-02-01 17:21:00,51.0,26.0,-100.00,SSW,197,4.0,6.0,38,0.00,,,-99.99,31.000000,,2013-02-02 01:21:00,
2013-02-01 17:31:00,51.0,26.0,-100.00,SSW,197,4.0,6.0,38,0.00,,,-99.99,31.000000,,2013-02-02 01:31:00,
2013-02-01 18:01:00,47.0,25.0,-100.00,SE,129,10.0,14.0,42,-99.99,,,-99.99,10.000000,,2013-02-02 02:01:00,
2013-02-01 18:11:00,47.0,25.0,-100.00,SE,129,10.0,14.0,42,-99.99,,,-99.99,10.000000,,2013-02-02 02:11:00,
2013-02-01 18:21:00,47.0,25.0,-100.00,SE,129,10.0,14.0,42,-99.99,,,-99.99,10.000000,,2013-02-02 02:21:00,
2013-02-01 18:31:00,47.0,25.0,-100.00,SE,129,10.0,14.0,42,-99.99,,,-99.99,10.000000,,2013-02-02 02:31:00,
2013-02-01 18:52:00,45.0,24.0,-100.00,SE,127,14.0,24.0,44,-99.99,,,0.00,1.000000,,2013-02-02 02:52:00,
2013-02-01 19:02:00,45.0,24.0,-100.00,SE,127,14.0,24.0,44,-99.99,,,0.00,1.000000,,2013-02-02 03:02:00,
2013-02-01 19:11:00,45.0,24.0,-100.00,SE,127,14.0,24.0,44,-99.99,,,0.00,1.000000,,2013-02-02 03:11:00,
2013-02-01 19:21:00,45.0,24.0,-100.00,SE,127,14.0,24.0,44,-99.99,,,0.00,1.000000,,2013-02-02 03:21:00,
2013-02-01 19:32:00,45.0,24.0,-100.00,SE,127,14.0,24.0,44,-99.99,,,0.00,1.000000,,2013-02-02 03:32:00,
2013-02-01 19:52:00,45.0,24.0,-100.00,ESE,109,10.0,18.0,44,-99.99,,,0.00,1.000000,,2013-02-02 03:52:00,
2013-02-01 20:01:00,45.0,24.0,-100.00,ESE,109,10.0,18.0,44,-99.99,,,0.00,1.000000,,2013-02-02 04:01:00,
2013-02-01 20:11:00,45.0,24.0,-100.00,ESE,109,10.0,18.0,44,-99.99,,,0.00,1.000000,,2013-02-02 04:11:00,
2013-02-01 20:21:00,45.0,24.0,-100.00,ESE,109,10.0,18.0,44,-99.99,,,0.00,1.000000,,2013-02-02 04:21:00,
2013-02-01 20:32:00,45.0,24.0,-100.00,ESE,109,10.0,18.0,44,-99.99,,,0.00,1.000000,,2013-02-02 04:32:00,
2013-02-01 20:52:00,44.0,22.0,-100.00,ESE,113,11.0,19.0,42,-99.99,,,0.00,1.000000,,2013-02-02 04:52:00,
2013-02-01 21:03:00,44.0,22.0,-100.00,ESE,113,11.0,19.0,42,-99.99,,,0.00,1.000000,,2013-02-02 05:03:00,
2013-02-01 21:11:00,44.0,22.0,-100.00,ESE,113,11.0,19.0,42,-99.99,,,0.00,1.000000,,2013-02-02 05:11:00,
2013-02-01 21:22:00,44.0,22.0,-100.00,ESE,113,11.0,19.0,42,-99.99,,,0.00,1.000000,,2013-02-02 05:22:00,
2013-02-01 21:32:00,44.0,22.0,-100.00,ESE,113,11.0,19.0,42,-99.99,,,0.00,1.000000,,2013-02-02 05:32:00,
2013-02-01 22:02:00,45.0,22.0,-100.00,ESE,111,12.0,20.0,39,-99.99,,,-99.99,1.000000,,2013-02-02 06:02:00,
2013-02-01 22:31:00,45.0,22.0,-100.00,ESE,111,12.0,20.0,39,-99.99,,,-99.99,1.000000,,2013-02-02 06:31:00,
2013-02-01 23:02:00,45.0,21.0,-100.00,ESE,111,10.0,22.0,38,-99.99,,,0.00,1.000000,,2013-02-02 07:02:00,
2013-02-01 23:21:00,45.0,21.0,-100.00,ESE,111,10.0,22.0,38,-99.99,,,0.00,1.000000,,2013-02-02 07:21:00,
2013-02-01 23:31:00,45.0,21.0,-100.00,ESE,111,10.0,22.0,38,-99.99,,,0.00,1.000000,,2013-02-02 07:31:00,